createdAt,value
2016-10-05T00:00:09.434Z,9.67
2016-10-05T00:00:31.151Z,9.63
2016-10-05T00:00:52.861Z,9.62
2016-10-05T00:01:14.575Z,9.58
2016-10-05T00:01:36.295Z,9.55
2016-10-05T00:01:58.017Z,9.64
2016-10-05T00:02:24.505Z,9.75
2016-10-05T00:02:46.212Z,9.81
2016-10-05T00:03:07.938Z,9.88
2016-10-05T00:03:29.653Z,9.91
2016-10-05T00:03:51.360Z,9.90
2016-10-05T00:04:13.069Z,9.79
2016-10-05T00:04:34.981Z,9.70
2016-10-05T00:04:56.783Z,9.63
2016-10-05T00:05:18.496Z,9.57
2016-10-05T00:05:40.206Z,9.65
2016-10-05T00:06:01.912Z,9.73
2016-10-05T00:06:23.622Z,9.75
2016-10-05T00:06:45.397Z,9.76
2016-10-05T00:07:07.110Z,9.76
2016-10-05T00:07:28.826Z,9.85
2016-10-05T00:07:50.534Z,9.74
2016-10-05T00:08:12.245Z,9.65
2016-10-05T00:08:33.956Z,9.61
2016-10-05T00:08:55.673Z,9.69
2016-10-05T00:09:17.382Z,9.63
2016-10-05T00:09:39.095Z,9.55
2016-10-05T00:10:00.809Z,9.45
2016-10-05T00:10:22.522Z,9.41
2016-10-05T00:10:44.233Z,9.33
2016-10-05T00:11:05.947Z,9.28
2016-10-05T00:11:27.674Z,9.28
2016-10-05T00:11:49.383Z,9.33
2016-10-05T00:12:11.097Z,9.44
2016-10-05T00:12:32.817Z,9.56
2016-10-05T00:12:54.519Z,9.62
2016-10-05T00:13:16.232Z,9.74
2016-10-05T00:13:37.948Z,9.76
2016-10-05T00:13:59.654Z,9.83
2016-10-05T00:14:21.362Z,9.87
2016-10-05T00:14:43.072Z,9.90
2016-10-05T00:15:04.784Z,9.86
2016-10-05T00:15:26.496Z,9.81
2016-10-05T00:15:48.207Z,9.85
2016-10-05T00:16:09.922Z,9.92
2016-10-05T00:16:31.632Z,9.94
2016-10-05T00:16:53.344Z,9.95
2016-10-05T00:17:15.067Z,9.96
2016-10-05T00:17:50.916Z,9.95
2016-10-05T00:18:12.617Z,9.97
2016-10-05T00:18:34.324Z,10.00
2016-10-05T00:18:56.030Z,10.00
2016-10-05T00:19:17.748Z,9.97
2016-10-05T00:19:39.450Z,9.87
2016-10-05T00:20:01.161Z,9.73
2016-10-05T00:20:22.873Z,9.63
2016-10-05T00:20:44.587Z,9.69
2016-10-05T00:21:06.288Z,9.72
2016-10-05T00:21:27.997Z,9.73
2016-10-05T00:21:49.703Z,9.70
2016-10-05T00:22:11.414Z,9.66
2016-10-05T00:22:33.135Z,9.65
2016-10-05T00:22:54.852Z,9.64
2016-10-05T00:23:16.564Z,9.67
2016-10-05T00:23:38.271Z,9.70
2016-10-05T00:23:59.986Z,9.67
2016-10-05T00:24:21.702Z,9.72
2016-10-05T00:24:43.415Z,9.80
2016-10-05T00:25:05.131Z,9.79
2016-10-05T00:25:26.840Z,9.78
2016-10-05T00:25:48.554Z,9.80
2016-10-05T00:26:10.258Z,9.73
2016-10-05T00:26:31.973Z,9.59
2016-10-05T00:26:53.689Z,9.44
2016-10-05T00:27:15.392Z,9.27
2016-10-05T00:27:37.116Z,9.16
2016-10-05T00:27:58.828Z,9.15
2016-10-05T00:28:20.549Z,9.12
2016-10-05T00:28:42.255Z,9.18
2016-10-05T00:29:03.969Z,9.27
2016-10-05T00:29:25.683Z,9.30
2016-10-05T00:29:47.406Z,9.34
2016-10-05T00:30:09.114Z,9.45
2016-10-05T00:30:30.824Z,9.50
2016-10-05T00:30:52.538Z,9.61
2016-10-05T00:31:14.249Z,9.68
2016-10-05T00:31:35.954Z,9.74
2016-10-05T00:31:57.669Z,9.73
2016-10-05T00:32:19.378Z,9.67
2016-10-05T00:32:41.087Z,9.65
2016-10-05T00:33:02.809Z,9.64
2016-10-05T00:33:24.524Z,9.68
2016-10-05T00:33:48.978Z,9.64
2016-10-05T00:34:10.557Z,9.62
2016-10-05T00:34:32.273Z,9.65
2016-10-05T00:34:53.983Z,9.68
2016-10-05T00:35:15.688Z,9.60
2016-10-05T00:35:37.403Z,9.59
2016-10-05T00:35:59.113Z,9.58
2016-10-05T00:36:20.820Z,9.51
2016-10-05T00:36:42.527Z,9.51
2016-10-05T00:37:04.236Z,9.47
2016-10-05T00:37:25.949Z,9.39
2016-10-05T00:37:47.667Z,9.35
2016-10-05T00:38:09.384Z,9.30
2016-10-05T00:38:31.093Z,9.40
2016-10-05T00:38:52.806Z,9.52
2016-10-05T00:39:14.517Z,9.51
2016-10-05T00:39:36.225Z,9.46
2016-10-05T00:39:57.938Z,9.40
2016-10-05T00:40:19.643Z,9.37
2016-10-05T00:40:41.371Z,9.34
2016-10-05T00:41:03.085Z,9.27
2016-10-05T00:41:24.799Z,9.18
2016-10-05T00:41:46.532Z,9.11
2016-10-05T00:42:08.241Z,9.13
2016-10-05T00:42:29.965Z,9.19
2016-10-05T00:42:51.675Z,9.27
2016-10-05T00:43:13.398Z,9.31
2016-10-05T00:43:35.112Z,9.34
2016-10-05T00:43:56.816Z,9.40
2016-10-05T00:44:18.527Z,9.38
2016-10-05T00:44:40.240Z,9.39
2016-10-05T00:45:02.466Z,9.40
2016-10-05T00:45:24.181Z,9.47
2016-10-05T00:45:45.902Z,9.56
2016-10-05T00:46:07.599Z,9.58
2016-10-05T00:46:29.316Z,9.47
2016-10-05T00:46:51.025Z,9.39
2016-10-05T00:47:12.735Z,9.29
2016-10-05T00:47:34.447Z,9.34
2016-10-05T00:47:56.158Z,9.41
2016-10-05T00:48:17.871Z,9.48
2016-10-05T00:48:39.575Z,9.42
2016-10-05T00:49:01.288Z,9.31
2016-10-05T00:49:23.002Z,9.29
2016-10-05T00:49:44.716Z,9.28
2016-10-05T00:50:06.427Z,9.36
2016-10-05T00:50:28.142Z,9.48
2016-10-05T00:50:49.859Z,9.53
2016-10-05T00:51:11.577Z,9.58
2016-10-05T00:51:33.287Z,9.60
2016-10-05T00:51:54.996Z,9.53
2016-10-05T00:52:16.714Z,9.42
2016-10-05T00:52:38.432Z,9.28
2016-10-05T00:53:00.145Z,9.24
2016-10-05T00:53:21.857Z,9.18
2016-10-05T00:53:43.571Z,9.21
2016-10-05T00:54:05.281Z,9.22
2016-10-05T00:54:26.996Z,9.10
2016-10-05T00:54:48.719Z,9.05
2016-10-05T00:55:10.428Z,9.02
2016-10-05T00:55:32.145Z,8.98
2016-10-05T00:55:53.899Z,8.99
2016-10-05T00:56:15.578Z,8.95
2016-10-05T00:56:37.293Z,9.05
2016-10-05T00:56:59.015Z,9.11
2016-10-05T00:57:20.727Z,9.22
2016-10-05T00:58:08.740Z,9.39
2016-10-05T00:58:30.455Z,9.46
2016-10-05T00:58:52.161Z,9.45
2016-10-05T00:59:13.873Z,9.46
2016-10-05T00:59:35.602Z,9.48
2016-10-05T01:01:09.178Z,9.44
2016-10-05T01:01:30.895Z,9.45
2016-10-05T01:01:52.599Z,9.42
2016-10-05T01:02:14.311Z,9.35
2016-10-05T01:02:36.028Z,9.30
2016-10-05T01:02:57.750Z,9.27
2016-10-05T01:03:19.463Z,9.34
2016-10-05T01:03:41.177Z,9.34
2016-10-05T01:04:02.893Z,9.36
2016-10-05T01:04:24.607Z,9.47
2016-10-05T01:04:46.317Z,9.52
2016-10-05T01:05:08.027Z,9.53
2016-10-05T01:05:29.742Z,9.53
2016-10-05T01:05:51.475Z,9.48
2016-10-05T01:06:13.177Z,9.50
2016-10-05T01:06:34.892Z,9.46
2016-10-05T01:06:56.599Z,9.43
2016-10-05T01:07:18.312Z,9.46
2016-10-05T01:07:40.026Z,9.48
2016-10-05T01:08:01.739Z,9.47
2016-10-05T01:08:23.456Z,9.43
2016-10-05T01:08:45.164Z,9.46
2016-10-05T01:09:06.869Z,9.45
2016-10-05T01:09:28.585Z,9.34
2016-10-05T01:09:50.291Z,9.25
2016-10-05T01:10:12.156Z,9.21
2016-10-05T01:10:33.721Z,9.20
2016-10-05T01:10:55.435Z,9.16
2016-10-05T01:11:17.152Z,9.16
2016-10-05T01:11:38.861Z,9.14
2016-10-05T01:12:00.564Z,9.22
2016-10-05T01:12:22.278Z,9.22
2016-10-05T01:12:43.985Z,9.21
2016-10-05T01:13:05.698Z,9.24
2016-10-05T01:13:27.409Z,9.29
2016-10-05T01:13:49.124Z,9.26
2016-10-05T01:14:10.844Z,9.27
2016-10-05T01:14:32.578Z,9.31
2016-10-05T01:14:54.289Z,9.23
2016-10-05T01:15:16.004Z,9.15
2016-10-05T01:15:37.713Z,9.11
2016-10-05T01:15:59.426Z,9.15
2016-10-05T01:16:21.140Z,9.26
2016-10-05T01:16:42.846Z,9.29
2016-10-05T01:17:04.567Z,9.23
2016-10-05T01:17:26.274Z,9.11
2016-10-05T01:17:48.011Z,9.10
2016-10-05T01:18:09.718Z,9.12
2016-10-05T01:18:31.431Z,9.14
2016-10-05T01:18:55.926Z,9.17
2016-10-05T01:19:17.640Z,9.14
2016-10-05T01:19:39.358Z,9.18
2016-10-05T01:20:01.061Z,9.24
2016-10-05T01:20:22.768Z,9.22
2016-10-05T01:20:44.479Z,9.16
2016-10-05T01:21:06.188Z,9.16
2016-10-05T01:21:27.902Z,9.21
2016-10-05T01:21:49.611Z,9.28
2016-10-05T01:22:11.320Z,9.24
2016-10-05T01:22:33.035Z,9.29
2016-10-05T01:22:54.748Z,9.18
2016-10-05T01:23:16.470Z,9.12
2016-10-05T01:23:38.180Z,9.06
2016-10-05T01:23:59.885Z,9.07
2016-10-05T01:24:21.600Z,9.15
2016-10-05T01:24:43.317Z,9.23
2016-10-05T01:25:05.037Z,9.27
2016-10-05T01:25:26.740Z,9.25
2016-10-05T01:25:48.461Z,9.31
2016-10-05T01:26:10.173Z,9.33
2016-10-05T01:26:31.889Z,9.41
2016-10-05T01:26:53.597Z,9.45
2016-10-05T01:27:15.317Z,9.40
2016-10-05T01:27:37.037Z,9.35
2016-10-05T01:27:58.747Z,9.36
2016-10-05T01:28:20.450Z,9.30
2016-10-05T01:28:42.158Z,9.28
2016-10-05T01:29:03.897Z,9.30
2016-10-05T01:29:25.601Z,9.27
2016-10-05T01:29:47.304Z,9.30
2016-10-05T01:30:35.494Z,9.12
2016-10-05T01:30:57.203Z,9.10
2016-10-05T01:31:18.917Z,9.16
2016-10-05T01:31:40.625Z,9.19
2016-10-05T01:32:02.334Z,9.27
2016-10-05T01:32:24.044Z,9.30
2016-10-05T01:32:45.757Z,9.35
2016-10-05T01:33:07.465Z,9.29
2016-10-05T01:33:29.175Z,9.32
2016-10-05T01:33:50.881Z,9.38
2016-10-05T01:34:12.608Z,9.43
2016-10-05T01:34:34.322Z,9.40
2016-10-05T01:34:56.041Z,9.29
2016-10-05T01:35:17.752Z,9.19
2016-10-05T01:35:39.466Z,9.13
2016-10-05T01:36:01.182Z,9.10
2016-10-05T01:36:22.889Z,9.10
2016-10-05T01:36:44.612Z,9.12
2016-10-05T01:37:06.326Z,9.03
2016-10-05T01:37:28.039Z,8.99
2016-10-05T01:37:49.748Z,9.01
2016-10-05T01:38:11.449Z,8.97
2016-10-05T01:38:33.175Z,8.99
2016-10-05T01:38:54.882Z,8.95
2016-10-05T01:39:16.611Z,8.92
2016-10-05T01:39:38.318Z,8.80
2016-10-05T01:40:00.031Z,8.68
2016-10-05T01:40:21.746Z,8.62
2016-10-05T01:40:43.451Z,8.67
2016-10-05T01:41:05.161Z,8.78
2016-10-05T01:41:26.875Z,8.85
2016-10-05T01:41:48.596Z,8.89
2016-10-05T01:42:10.302Z,8.80
2016-10-05T01:42:32.011Z,8.73
2016-10-05T01:42:53.722Z,8.81
2016-10-05T01:43:15.427Z,8.90
2016-10-05T01:43:37.141Z,8.87
2016-10-05T01:43:58.857Z,8.80
2016-10-05T01:44:20.570Z,8.80
2016-10-05T01:44:42.296Z,8.83
2016-10-05T01:45:03.999Z,8.90
2016-10-05T01:45:25.709Z,8.94
2016-10-05T01:45:47.424Z,8.97
2016-10-05T01:46:09.134Z,8.97
2016-10-05T01:46:30.852Z,8.95
2016-10-05T01:46:52.566Z,8.86
2016-10-05T01:47:14.295Z,8.82
2016-10-05T01:47:35.995Z,8.89
2016-10-05T01:47:57.716Z,8.89
2016-10-05T01:48:19.423Z,8.85
2016-10-05T01:48:41.133Z,8.86
2016-10-05T01:49:02.846Z,8.88
2016-10-05T01:49:24.560Z,8.93
2016-10-05T01:49:46.268Z,8.94
2016-10-05T01:50:07.986Z,8.97
2016-10-05T01:50:29.700Z,8.96
2016-10-05T01:50:51.416Z,8.95
2016-10-05T01:51:17.906Z,8.88
2016-10-05T01:51:39.623Z,8.85
2016-10-05T01:52:01.334Z,8.81
2016-10-05T01:52:23.056Z,8.85
2016-10-05T01:52:44.768Z,8.99
2016-10-05T01:53:06.488Z,9.03
2016-10-05T01:53:28.202Z,9.02
2016-10-05T01:53:49.914Z,9.05
2016-10-05T01:54:11.632Z,9.02
2016-10-05T01:54:33.354Z,9.02
2016-10-05T01:54:55.068Z,8.92
2016-10-05T01:55:16.774Z,8.83
2016-10-05T01:55:38.487Z,8.73
2016-10-05T01:56:00.195Z,8.74
2016-10-05T01:56:26.691Z,8.89
2016-10-05T01:56:48.400Z,8.91
2016-10-05T01:57:10.118Z,8.98
2016-10-05T01:57:31.838Z,9.02
2016-10-05T01:57:53.549Z,9.09
2016-10-05T01:58:15.263Z,9.16
2016-10-05T01:58:36.975Z,9.14
2016-10-05T01:58:58.693Z,9.15
2016-10-05T01:59:20.404Z,9.06
2016-10-05T01:59:42.126Z,8.96
2016-10-05T02:00:03.830Z,9.02
2016-10-05T02:00:25.545Z,9.01
2016-10-05T02:00:47.271Z,9.05
2016-10-05T02:01:08.979Z,9.11
2016-10-05T02:01:30.696Z,9.14
2016-10-05T02:01:52.407Z,9.15
2016-10-05T02:02:14.122Z,9.01
2016-10-05T02:02:35.841Z,8.92
2016-10-05T02:02:57.559Z,8.91
2016-10-05T02:03:19.278Z,8.89
2016-10-05T02:03:41.989Z,8.96
2016-10-05T02:04:03.703Z,8.94
2016-10-05T02:04:25.417Z,8.90
2016-10-05T02:04:47.140Z,8.96
2016-10-05T02:05:08.932Z,9.01
2016-10-05T02:05:30.650Z,9.03
2016-10-05T02:05:52.372Z,9.12
2016-10-05T02:06:14.087Z,9.12
2016-10-05T02:06:35.803Z,8.98
2016-10-05T02:06:57.529Z,8.82
2016-10-05T02:07:19.243Z,8.80
2016-10-05T02:07:40.949Z,8.88
2016-10-05T02:08:10.180Z,8.88
2016-10-05T02:08:31.886Z,8.83
2016-10-05T02:08:53.599Z,8.76
2016-10-05T02:09:15.317Z,8.64
2016-10-05T02:09:37.023Z,8.69
2016-10-05T02:09:58.738Z,8.74
2016-10-05T02:10:20.452Z,8.79
2016-10-05T02:10:42.167Z,8.83
2016-10-05T02:11:03.885Z,8.86
2016-10-05T02:11:25.599Z,8.90
2016-10-05T02:11:47.308Z,8.89
2016-10-05T02:12:09.031Z,8.87
2016-10-05T02:12:30.738Z,8.78
2016-10-05T02:12:52.447Z,8.70
2016-10-05T02:13:14.160Z,8.70
2016-10-05T02:13:35.872Z,8.80
2016-10-05T02:13:57.581Z,8.91
2016-10-05T02:14:19.304Z,8.95
2016-10-05T02:14:41.009Z,8.93
2016-10-05T02:15:02.724Z,8.97
2016-10-05T02:15:24.440Z,8.96
2016-10-05T02:15:46.152Z,8.95
2016-10-05T02:16:07.859Z,8.90
2016-10-05T02:16:29.575Z,8.83
2016-10-05T02:16:51.288Z,8.80
2016-10-05T02:17:13.005Z,8.84
2016-10-05T02:17:34.719Z,8.87
2016-10-05T02:17:56.426Z,8.87
2016-10-05T02:18:18.137Z,8.78
2016-10-05T02:18:39.841Z,8.70
2016-10-05T02:19:01.549Z,8.56
2016-10-05T02:19:23.260Z,8.62
2016-10-05T02:19:44.979Z,8.77
2016-10-05T02:20:06.691Z,8.87
2016-10-05T02:20:28.410Z,8.92
2016-10-05T02:20:50.118Z,8.96
2016-10-05T02:21:11.828Z,8.93
2016-10-05T02:21:33.537Z,8.81
2016-10-05T02:21:55.248Z,8.76
2016-10-05T02:22:16.959Z,8.79
2016-10-05T02:22:38.677Z,8.72
2016-10-05T02:23:00.388Z,8.63
2016-10-05T02:23:22.094Z,8.67
2016-10-05T02:23:43.809Z,8.62
2016-10-05T02:24:05.545Z,8.61
2016-10-05T02:24:27.254Z,8.67
2016-10-05T02:24:48.961Z,8.66
2016-10-05T02:25:10.686Z,8.66
2016-10-05T02:25:32.391Z,8.60
2016-10-05T02:25:54.101Z,8.54
2016-10-05T02:26:15.807Z,8.52
2016-10-05T02:26:37.525Z,8.54
2016-10-05T02:26:59.223Z,8.56
2016-10-05T02:27:20.931Z,8.63
2016-10-05T02:27:42.636Z,8.60
2016-10-05T02:28:04.349Z,8.58
2016-10-05T02:28:26.058Z,8.53
2016-10-05T02:28:47.781Z,8.57
2016-10-05T02:29:09.489Z,8.62
2016-10-05T02:29:31.198Z,8.66
2016-10-05T02:29:52.903Z,8.68
2016-10-05T02:30:14.615Z,8.73
2016-10-05T02:30:36.331Z,8.78
2016-10-05T02:30:58.042Z,8.83
2016-10-05T02:31:19.752Z,8.87
2016-10-05T02:31:41.460Z,8.78
2016-10-05T02:32:03.173Z,8.68
2016-10-05T02:32:24.881Z,8.67
2016-10-05T02:32:46.591Z,8.66
2016-10-05T02:33:08.305Z,8.51
2016-10-05T02:33:30.024Z,8.41
2016-10-05T02:33:51.739Z,8.38
2016-10-05T02:34:13.446Z,8.28
2016-10-05T02:34:35.157Z,8.26
2016-10-05T02:34:56.865Z,8.27
2016-10-05T02:35:18.579Z,8.40
2016-10-05T02:35:40.292Z,8.44
2016-10-05T02:36:02.005Z,8.52
2016-10-05T02:36:23.715Z,8.59
2016-10-05T02:36:45.428Z,8.72
2016-10-05T02:37:07.134Z,8.65
2016-10-05T02:37:28.843Z,8.63
2016-10-05T02:37:50.555Z,8.68
2016-10-05T02:38:12.267Z,8.74
2016-10-05T02:39:00.461Z,8.72
2016-10-05T02:39:22.169Z,8.72
2016-10-05T02:39:43.875Z,8.72
2016-10-05T02:40:05.587Z,8.68
2016-10-05T02:40:32.079Z,8.78
2016-10-05T02:40:53.790Z,8.78
2016-10-05T02:41:15.508Z,8.79
2016-10-05T02:41:37.217Z,8.78
2016-10-05T02:41:58.931Z,8.64
2016-10-05T02:42:20.638Z,8.51
2016-10-05T02:42:42.350Z,8.36
2016-10-05T02:43:04.066Z,8.40
2016-10-05T02:43:25.788Z,8.46
2016-10-05T02:43:47.497Z,8.38
2016-10-05T02:44:09.209Z,8.30
2016-10-05T02:44:30.915Z,8.22
2016-10-05T02:44:52.634Z,8.24
2016-10-05T02:45:14.351Z,8.26
2016-10-05T02:45:36.059Z,8.30
2016-10-05T02:45:57.774Z,8.34
2016-10-05T02:46:19.484Z,8.37
2016-10-05T02:46:41.191Z,8.41
2016-10-05T02:47:02.902Z,8.51
2016-10-05T02:47:24.618Z,8.52
2016-10-05T02:47:46.325Z,8.53
2016-10-05T02:48:08.031Z,8.59
2016-10-05T02:48:29.743Z,8.62
2016-10-05T02:48:51.458Z,8.57
2016-10-05T02:49:13.167Z,8.62
2016-10-05T02:49:34.873Z,8.70
2016-10-05T02:49:56.597Z,8.70
2016-10-05T02:50:18.309Z,8.72
2016-10-05T02:50:40.025Z,8.65
2016-10-05T02:51:01.734Z,8.57
2016-10-05T02:51:23.449Z,8.62
2016-10-05T02:51:45.161Z,8.63
2016-10-05T02:52:06.872Z,8.61
2016-10-05T02:52:28.585Z,8.41
2016-10-05T02:52:50.291Z,8.24
2016-10-05T02:53:12.000Z,8.12
2016-10-05T02:53:33.720Z,8.12
2016-10-05T02:53:55.427Z,8.21
2016-10-05T02:54:17.152Z,8.27
2016-10-05T02:54:38.865Z,8.39
2016-10-05T02:55:00.571Z,8.50
2016-10-05T02:55:22.286Z,8.58
2016-10-05T02:55:44.023Z,8.63
2016-10-05T02:56:05.718Z,8.66
2016-10-05T02:56:27.434Z,8.67
2016-10-05T02:56:49.146Z,8.74
2016-10-05T02:57:10.854Z,8.76
2016-10-05T02:57:32.569Z,8.71
2016-10-05T02:57:54.284Z,8.73
2016-10-05T02:58:16.006Z,8.67
2016-10-05T02:58:37.716Z,8.56
2016-10-05T02:58:59.423Z,8.41
2016-10-05T02:59:21.163Z,8.38
2016-10-05T02:59:42.875Z,8.41
2016-10-05T03:00:04.589Z,8.46
2016-10-05T03:00:26.294Z,8.52
2016-10-05T03:00:52.779Z,8.63
2016-10-05T03:01:14.486Z,8.63
2016-10-05T03:01:37.196Z,8.49
2016-10-05T03:01:58.905Z,8.51
2016-10-05T03:02:20.628Z,8.50
2016-10-05T03:02:42.343Z,8.46
2016-10-05T03:03:04.051Z,8.51
2016-10-05T03:03:25.763Z,8.58
2016-10-05T03:03:47.473Z,8.63
2016-10-05T03:04:09.181Z,8.69
2016-10-05T03:04:30.897Z,8.77
2016-10-05T03:04:52.610Z,8.85
2016-10-05T03:05:14.318Z,8.85
2016-10-05T03:05:36.032Z,8.84
2016-10-05T03:05:57.748Z,8.87
2016-10-05T03:06:19.460Z,8.84
2016-10-05T03:06:41.177Z,8.77
2016-10-05T03:07:02.890Z,8.81
2016-10-05T03:07:24.604Z,8.78
2016-10-05T03:07:46.317Z,8.76
2016-10-05T03:08:08.026Z,8.62
2016-10-05T03:08:29.738Z,8.50
2016-10-05T03:08:51.449Z,8.45
2016-10-05T03:09:13.164Z,8.54
2016-10-05T03:09:34.873Z,8.46
2016-10-05T03:09:56.585Z,8.47
2016-10-05T03:10:18.297Z,8.54
2016-10-05T03:10:40.016Z,8.58
2016-10-05T03:11:01.731Z,8.65
2016-10-05T03:11:23.438Z,8.68
2016-10-05T03:11:45.147Z,8.67
2016-10-05T03:12:06.853Z,8.69
2016-10-05T03:12:28.574Z,8.70
2016-10-05T03:12:50.286Z,8.70
2016-10-05T03:13:11.998Z,8.64
2016-10-05T03:13:33.705Z,8.58
2016-10-05T03:13:55.416Z,8.47
2016-10-05T03:14:17.122Z,8.46
2016-10-05T03:14:38.833Z,8.44
2016-10-05T03:15:00.542Z,8.35
2016-10-05T03:15:22.256Z,8.34
2016-10-05T03:15:43.974Z,8.33
2016-10-05T03:16:05.688Z,8.38
2016-10-05T03:16:32.176Z,8.36
2016-10-05T03:16:53.883Z,8.31
2016-10-05T03:17:15.603Z,8.24
2016-10-05T03:17:37.312Z,8.16
2016-10-05T03:17:59.027Z,8.16
2016-10-05T03:18:20.739Z,8.20
2016-10-05T03:18:42.453Z,8.29
2016-10-05T03:19:04.164Z,8.40
2016-10-05T03:19:25.876Z,8.44
2016-10-05T03:19:47.608Z,8.44
2016-10-05T03:20:09.315Z,8.46
2016-10-05T03:20:31.042Z,8.52
2016-10-05T03:20:52.760Z,8.49
2016-10-05T03:21:14.468Z,8.45
2016-10-05T03:21:36.180Z,8.41
2016-10-05T03:21:57.895Z,8.37
2016-10-05T03:22:19.601Z,8.35
2016-10-05T03:22:41.310Z,8.40
2016-10-05T03:23:03.019Z,8.40
2016-10-05T03:23:24.733Z,8.42
2016-10-05T03:23:46.438Z,8.43
2016-10-05T03:24:08.160Z,8.38
2016-10-05T03:24:29.868Z,8.38
2016-10-05T03:24:51.580Z,8.39
2016-10-05T03:25:13.296Z,8.43
2016-10-05T03:25:35.005Z,8.51
2016-10-05T03:25:56.723Z,8.51
2016-10-05T03:26:18.435Z,8.55
2016-10-05T03:26:40.150Z,8.57
2016-10-05T03:27:01.865Z,8.50
2016-10-05T03:27:23.573Z,8.46
2016-10-05T03:27:45.281Z,8.46
2016-10-05T03:28:06.994Z,8.50
2016-10-05T03:28:28.712Z,8.43
2016-10-05T03:28:50.429Z,8.36
2016-10-05T03:29:12.136Z,8.32
2016-10-05T03:29:33.861Z,8.22
2016-10-05T03:29:55.574Z,8.14
2016-10-05T03:30:17.287Z,8.06
2016-10-05T03:30:38.998Z,8.04
2016-10-05T03:31:00.710Z,8.05
2016-10-05T03:31:22.416Z,8.17
2016-10-05T03:31:44.136Z,8.25
2016-10-05T03:32:05.846Z,8.29
2016-10-05T03:32:27.560Z,8.36
2016-10-05T03:32:49.277Z,8.38
2016-10-05T03:33:10.976Z,8.34
2016-10-05T03:33:32.689Z,8.27
2016-10-05T03:33:54.397Z,8.26
2016-10-05T03:34:16.110Z,8.35
2016-10-05T03:34:37.822Z,8.35
2016-10-05T03:34:59.534Z,8.39
2016-10-05T03:35:21.239Z,8.46
2016-10-05T03:35:42.947Z,8.49
2016-10-05T03:36:04.659Z,8.43
2016-10-05T03:36:26.376Z,8.39
2016-10-05T03:36:48.092Z,8.45
2016-10-05T03:37:09.806Z,8.52
2016-10-05T03:37:31.519Z,8.56
2016-10-05T03:37:53.220Z,8.59
2016-10-05T03:38:14.937Z,8.57
2016-10-05T03:38:36.646Z,8.59
2016-10-05T03:38:58.354Z,8.59
2016-10-05T03:39:20.065Z,8.65
2016-10-05T03:39:41.780Z,8.65
2016-10-05T03:40:03.487Z,8.57
2016-10-05T03:40:25.200Z,8.57
2016-10-05T03:40:46.908Z,8.59
2016-10-05T03:41:08.621Z,8.61
2016-10-05T03:41:30.329Z,8.58
2016-10-05T03:41:52.047Z,8.39
2016-10-05T03:42:13.757Z,8.20
2016-10-05T03:42:35.471Z,8.09
2016-10-05T03:42:57.180Z,8.00
2016-10-05T03:43:18.900Z,8.00
2016-10-05T03:43:40.617Z,8.03
2016-10-05T03:44:11.881Z,8.23
2016-10-05T03:44:33.601Z,8.15
2016-10-05T03:44:55.314Z,8.15
2016-10-05T03:45:17.031Z,8.25
2016-10-05T03:45:38.745Z,8.26
2016-10-05T03:46:00.464Z,8.17
2016-10-05T03:46:22.164Z,8.26
2016-10-05T03:46:43.875Z,8.34
2016-10-05T03:47:05.581Z,8.36
2016-10-05T03:47:27.308Z,8.32
2016-10-05T03:47:49.023Z,8.28
2016-10-05T03:48:10.740Z,8.28
2016-10-05T03:48:32.446Z,8.32
2016-10-05T03:48:54.155Z,8.25
2016-10-05T03:49:15.863Z,8.16
2016-10-05T03:49:42.348Z,8.13
2016-10-05T03:50:04.062Z,8.16
2016-10-05T03:50:25.768Z,8.14
2016-10-05T03:50:47.487Z,8.02
2016-10-05T03:51:09.204Z,7.89
2016-10-05T03:51:30.920Z,7.85
2016-10-05T03:51:52.617Z,7.89
2016-10-05T03:52:19.097Z,7.93
2016-10-05T03:52:40.828Z,7.94
2016-10-05T03:53:02.539Z,7.87
2016-10-05T03:53:24.248Z,7.80
2016-10-05T03:53:45.951Z,7.79
2016-10-05T03:54:07.677Z,7.86
2016-10-05T03:54:29.387Z,7.95
2016-10-05T03:54:51.098Z,8.02
2016-10-05T03:55:12.806Z,8.04
2016-10-05T03:55:34.517Z,8.06
2016-10-05T03:55:56.236Z,8.08
2016-10-05T03:56:17.945Z,8.02
2016-10-05T03:56:39.672Z,7.91
2016-10-05T03:57:01.385Z,7.88
2016-10-05T03:57:23.088Z,7.92
2016-10-05T03:57:44.801Z,8.03
2016-10-05T03:58:06.520Z,8.03
2016-10-05T03:58:28.228Z,7.99
2016-10-05T03:58:49.942Z,7.96
2016-10-05T03:59:14.192Z,7.94
2016-10-05T03:59:35.898Z,8.05
2016-10-05T03:59:57.607Z,8.10
2016-10-05T04:00:19.325Z,8.10
2016-10-05T04:00:41.038Z,8.08
2016-10-05T04:01:02.750Z,8.02
2016-10-05T04:01:24.460Z,8.00
2016-10-05T04:01:46.188Z,7.93
2016-10-05T04:02:07.896Z,7.82
2016-10-05T04:02:29.609Z,7.76
2016-10-05T04:02:51.334Z,7.79
2016-10-05T04:03:13.058Z,7.83
2016-10-05T04:03:34.766Z,7.80
2016-10-05T04:03:56.478Z,7.80
2016-10-05T04:04:18.188Z,7.79
2016-10-05T04:04:39.903Z,7.75
2016-10-05T04:05:01.607Z,7.74
2016-10-05T04:05:23.314Z,7.90
2016-10-05T04:05:45.025Z,7.95
2016-10-05T04:06:06.742Z,7.99
2016-10-05T04:06:28.460Z,8.02
2016-10-05T04:06:50.167Z,8.00
2016-10-05T04:07:11.867Z,8.03
2016-10-05T04:07:33.585Z,8.07
2016-10-05T04:07:55.295Z,8.03
2016-10-05T04:08:17.028Z,7.94
2016-10-05T04:08:38.733Z,7.92
2016-10-05T04:09:00.443Z,7.91
2016-10-05T04:09:22.149Z,7.89
2016-10-05T04:09:43.868Z,7.89
2016-10-05T04:10:05.577Z,7.87
2016-10-05T04:10:27.287Z,7.84
2016-10-05T04:10:48.999Z,7.84
2016-10-05T04:11:10.721Z,7.84
2016-10-05T04:11:32.441Z,7.90
2016-10-05T04:11:54.154Z,8.00
2016-10-05T04:12:15.882Z,8.10
2016-10-05T04:12:37.593Z,8.07
2016-10-05T04:12:59.303Z,8.06
2016-10-05T04:13:21.022Z,8.14
2016-10-05T04:13:42.737Z,8.14
2016-10-05T04:14:04.453Z,8.13
2016-10-05T04:14:26.169Z,8.15
2016-10-05T04:14:47.879Z,8.17
2016-10-05T04:15:12.165Z,8.08
2016-10-05T04:15:33.871Z,7.90
2016-10-05T04:15:56.575Z,7.73
2016-10-05T04:16:18.285Z,7.73
2016-10-05T04:16:40.003Z,7.78
2016-10-05T04:17:01.711Z,7.81
2016-10-05T04:17:23.423Z,7.82
2016-10-05T04:17:49.904Z,7.88
2016-10-05T04:18:11.622Z,7.87
2016-10-05T04:18:33.328Z,7.80
2016-10-05T04:18:55.059Z,7.86
2016-10-05T04:19:19.269Z,7.78
2016-10-05T04:19:40.995Z,7.79
2016-10-05T04:20:02.710Z,7.76
2016-10-05T04:20:24.441Z,7.72
2016-10-05T04:20:46.145Z,7.60
2016-10-05T04:21:08.859Z,7.63
2016-10-05T04:21:30.580Z,7.65
2016-10-05T04:21:52.295Z,7.65
2016-10-05T04:22:14.012Z,7.65
2016-10-05T04:23:33.463Z,7.48
2016-10-05T04:23:55.179Z,7.48
2016-10-05T04:24:17.894Z,7.49
2016-10-05T04:24:39.612Z,7.57
2016-10-05T04:25:01.325Z,7.68
2016-10-05T04:25:23.041Z,7.88
2016-10-05T04:25:44.751Z,7.97
2016-10-05T04:26:06.474Z,7.92
2016-10-05T04:26:28.185Z,7.94
2016-10-05T04:26:50.905Z,7.98
2016-10-05T04:27:12.617Z,8.03
2016-10-05T04:27:34.330Z,8.07
2016-10-05T04:27:56.046Z,8.05
2016-10-05T04:28:17.753Z,7.98
2016-10-05T04:28:39.470Z,7.94
2016-10-05T04:29:01.184Z,7.87
2016-10-05T04:29:22.893Z,7.87
2016-10-05T04:29:44.602Z,7.91
2016-10-05T04:30:06.307Z,7.89
2016-10-05T04:30:28.022Z,7.99
2016-10-05T04:30:49.730Z,7.91
2016-10-05T04:31:11.439Z,7.80
2016-10-05T04:31:33.158Z,7.73
2016-10-05T04:31:54.879Z,7.77
2016-10-05T04:32:16.583Z,7.79
2016-10-05T04:32:43.072Z,7.90
2016-10-05T04:33:04.781Z,7.95
2016-10-05T04:33:26.497Z,7.96
2016-10-05T04:33:48.204Z,7.93
2016-10-05T04:34:09.927Z,7.96
2016-10-05T04:34:31.636Z,7.88
2016-10-05T04:34:53.344Z,7.87
2016-10-05T04:35:15.061Z,7.80
2016-10-05T04:35:36.759Z,7.76
2016-10-05T04:35:58.474Z,7.83
2016-10-05T04:36:20.184Z,7.94
2016-10-05T04:37:08.396Z,7.62
2016-10-05T04:37:30.105Z,7.62
2016-10-05T04:37:51.820Z,7.59
2016-10-05T04:38:13.527Z,7.61
2016-10-05T04:38:35.243Z,7.54
2016-10-05T04:38:56.964Z,7.50
2016-10-05T04:39:18.673Z,7.58
2016-10-05T04:39:40.388Z,7.71
2016-10-05T04:40:02.092Z,7.79
2016-10-05T04:40:23.812Z,7.87
2016-10-05T04:40:45.522Z,7.97
2016-10-05T04:41:07.234Z,7.97
2016-10-05T04:41:28.960Z,7.99
2016-10-05T04:41:50.673Z,7.93
2016-10-05T04:42:12.381Z,7.95
2016-10-05T04:42:34.097Z,7.89
2016-10-05T04:42:55.811Z,7.88
2016-10-05T04:43:17.522Z,7.80
2016-10-05T04:43:39.248Z,7.63
2016-10-05T04:44:00.956Z,7.50
2016-10-05T04:44:22.670Z,7.48
2016-10-05T04:44:44.379Z,7.56
2016-10-05T04:45:06.103Z,7.59
2016-10-05T04:45:27.812Z,7.59
2016-10-05T04:45:52.486Z,7.60
2016-10-05T04:46:14.207Z,7.60
2016-10-05T04:46:35.916Z,7.61
2016-10-05T04:46:57.629Z,7.73
2016-10-05T04:47:19.339Z,7.83
2016-10-05T04:47:41.048Z,7.86
2016-10-05T04:48:02.771Z,7.84
2016-10-05T04:48:24.484Z,7.90
2016-10-05T04:48:46.189Z,7.86
2016-10-05T04:49:07.901Z,7.87
2016-10-05T04:49:29.616Z,7.91
2016-10-05T04:50:00.883Z,8.04
2016-10-05T04:50:22.597Z,8.10
2016-10-05T04:50:45.310Z,8.11
2016-10-05T04:51:07.011Z,8.13
2016-10-05T04:51:28.721Z,8.11
2016-10-05T04:51:50.430Z,8.12
2016-10-05T04:52:12.136Z,8.05
2016-10-05T04:52:33.846Z,7.98
2016-10-05T04:52:55.567Z,7.99
2016-10-05T04:53:17.277Z,8.01
2016-10-05T04:54:05.472Z,8.09
2016-10-05T04:54:30.088Z,8.08
2016-10-05T04:54:51.805Z,8.04
2016-10-05T04:55:13.509Z,8.03